createdAt,value
2023-09-23T00:00:40.945Z,66.66
2023-09-23T00:03:07.148Z,65.73
2023-09-23T00:05:33.433Z,65.98
2023-09-23T00:07:59.666Z,65.48
2023-09-23T00:10:25.881Z,64.84
2023-09-23T00:12:52.045Z,64.80
2023-09-23T00:15:18.205Z,64.40
2023-09-23T00:17:44.392Z,65.18
2023-09-23T00:20:10.617Z,66.20
2023-09-23T00:22:36.923Z,66.01
2023-09-23T00:25:03.092Z,65.72
2023-09-23T00:27:29.255Z,65.93
2023-09-23T00:29:55.419Z,65.16
2023-09-23T00:32:21.596Z,64.42
2023-09-23T00:34:47.823Z,65.28
2023-09-23T00:37:14.004Z,66.20
2023-09-23T00:39:40.167Z,66.19
2023-09-23T00:42:06.337Z,65.86
2023-09-23T00:44:32.514Z,67.56
2023-09-23T00:46:58.702Z,68.36
2023-09-23T00:49:24.881Z,67.99
2023-09-23T00:51:51.039Z,67.32
2023-09-23T00:54:17.203Z,66.29
2023-09-23T00:56:43.375Z,67.81
2023-09-23T00:59:09.569Z,69.10
2023-09-23T01:01:35.870Z,68.26
2023-09-23T01:04:02.202Z,68.41
2023-09-23T01:06:28.483Z,68.49
2023-09-23T01:08:54.624Z,69.42
2023-09-23T01:11:20.837Z,68.08
2023-09-23T01:13:47.101Z,68.41
2023-09-23T01:16:13.343Z,66.93
2023-09-23T01:18:39.551Z,65.59
2023-09-23T01:21:05.698Z,66.14
2023-09-23T01:23:31.961Z,66.28
2023-09-23T01:25:58.141Z,66.59
2023-09-23T01:28:24.302Z,66.43
2023-09-23T01:30:50.456Z,66.43
2023-09-23T01:33:16.810Z,66.62
2023-09-23T01:35:43.107Z,66.13
2023-09-23T01:38:09.321Z,66.89
2023-09-23T01:40:35.515Z,66.63
2023-09-23T01:43:01.720Z,65.87
2023-09-23T01:45:27.903Z,65.87
2023-09-23T01:47:54.099Z,65.97
2023-09-23T01:50:20.417Z,65.51
2023-09-23T01:52:46.732Z,65.68
2023-09-23T01:55:12.924Z,66.95
2023-09-23T01:57:39.087Z,66.10
2023-09-23T02:00:05.232Z,66.64
2023-09-23T02:02:31.502Z,66.46
2023-09-23T02:04:57.843Z,66.09
2023-09-23T02:07:24.056Z,67.98
2023-09-23T02:09:50.195Z,67.51
2023-09-23T02:12:16.361Z,69.54
2023-09-23T02:14:42.515Z,68.30
2023-09-23T02:17:08.772Z,67.91
2023-09-23T02:19:35.001Z,66.41
2023-09-23T02:22:01.174Z,65.76
2023-09-23T02:24:27.327Z,65.82
2023-09-23T02:26:53.518Z,65.53
2023-09-23T02:29:19.744Z,65.63
2023-09-23T02:31:46.016Z,65.27
2023-09-23T02:34:12.200Z,65.04
2023-09-23T02:36:38.357Z,64.43
2023-09-23T02:39:04.522Z,64.63
2023-09-23T02:41:30.689Z,65.13
2023-09-23T02:43:56.872Z,64.12
2023-09-23T02:46:23.140Z,65.08
2023-09-23T02:48:49.340Z,64.44
2023-09-23T02:51:15.492Z,64.52
2023-09-23T02:53:41.653Z,65.71
2023-09-23T02:56:07.943Z,65.25
2023-09-23T02:58:34.202Z,65.50
2023-09-23T03:01:00.378Z,65.19
2023-09-23T03:03:26.639Z,66.85
2023-09-23T03:05:52.965Z,67.56
2023-09-23T03:08:19.274Z,67.51
2023-09-23T03:10:45.581Z,66.50
2023-09-23T03:13:12.105Z,65.75
2023-09-23T03:15:38.260Z,66.21
2023-09-23T03:18:04.504Z,64.67
2023-09-23T03:20:30.800Z,66.48
2023-09-23T03:22:57.000Z,66.43
2023-09-23T03:25:23.188Z,66.11
2023-09-23T03:27:49.367Z,67.69
2023-09-23T03:30:15.542Z,67.35
2023-09-23T03:32:41.801Z,66.74
2023-09-23T03:35:08.028Z,67.22
2023-09-23T03:37:34.210Z,67.53
2023-09-23T03:40:00.389Z,67.21
2023-09-23T03:42:26.556Z,66.09
2023-09-23T03:44:52.717Z,69.60
2023-09-23T03:47:18.946Z,72.28
2023-09-23T03:49:45.174Z,71.72
2023-09-23T03:52:11.374Z,70.32
2023-09-23T03:54:37.551Z,69.88
2023-09-23T03:57:03.704Z,70.21
2023-09-23T03:59:29.865Z,69.58
2023-09-23T04:01:56.122Z,67.76
2023-09-23T04:04:22.333Z,67.66
2023-09-23T04:06:48.492Z,67.87
2023-09-23T04:09:14.629Z,67.77
2023-09-23T04:11:40.790Z,67.77
2023-09-23T04:14:06.952Z,66.52
2023-09-23T04:16:33.193Z,66.84
2023-09-23T04:18:59.362Z,68.15
2023-09-23T04:21:25.559Z,68.25
2023-09-23T04:23:51.713Z,68.33
2023-09-23T04:26:17.896Z,68.37
2023-09-23T04:28:44.140Z,68.31
2023-09-23T04:31:10.375Z,68.18
2023-09-23T04:33:36.594Z,68.82
2023-09-23T04:36:02.790Z,67.72
2023-09-23T04:38:29.136Z,66.92
2023-09-23T04:40:55.313Z,67.77
2023-09-23T04:43:21.509Z,67.78
2023-09-23T04:45:47.704Z,68.64
2023-09-23T04:48:14.022Z,67.76
2023-09-23T04:50:40.227Z,67.29
2023-09-23T04:53:06.424Z,66.04
2023-09-23T04:55:32.638Z,65.57
2023-09-23T04:57:58.802Z,65.33
2023-09-23T05:00:24.980Z,65.19
2023-09-23T05:02:51.482Z,65.12
2023-09-23T05:05:18.171Z,64.90
2023-09-23T05:07:44.385Z,65.65
2023-09-23T05:10:10.556Z,65.52
2023-09-23T05:12:36.811Z,65.03
2023-09-23T05:15:02.970Z,65.27
2023-09-23T05:17:29.176Z,64.60
2023-09-23T05:19:55.394Z,64.81
2023-09-23T05:22:21.711Z,64.77
2023-09-23T05:24:47.900Z,65.40
2023-09-23T05:27:14.109Z,65.37
2023-09-23T05:29:40.296Z,64.96
2023-09-23T05:32:06.513Z,65.00
2023-09-23T05:34:32.763Z,64.66
2023-09-23T05:36:58.916Z,65.75
2023-09-23T05:39:25.114Z,65.38
2023-09-23T05:41:51.261Z,65.78
2023-09-23T05:44:17.475Z,65.59
2023-09-23T05:46:43.756Z,65.49
2023-09-23T05:49:09.941Z,65.30
2023-09-23T05:51:36.109Z,64.60
2023-09-23T05:54:02.290Z,64.24
2023-09-23T05:56:28.487Z,65.02
2023-09-23T05:58:54.718Z,64.98
2023-09-23T06:01:20.932Z,64.85
2023-09-23T06:03:47.432Z,64.83
2023-09-23T06:06:13.825Z,64.87
2023-09-23T06:08:39.984Z,64.64
2023-09-23T06:11:06.338Z,64.35
2023-09-23T06:13:32.610Z,64.60
2023-09-23T06:15:58.756Z,64.09
2023-09-23T06:18:25.011Z,64.52
2023-09-23T06:20:51.178Z,64.26
2023-09-23T06:23:17.372Z,64.52
2023-09-23T06:25:43.680Z,64.81
2023-09-23T06:28:09.858Z,64.64
2023-09-23T06:30:36.031Z,64.37
2023-09-23T06:33:02.316Z,63.65
2023-09-23T06:35:28.599Z,62.53
2023-09-23T06:37:54.780Z,63.06
2023-09-23T06:40:20.988Z,62.78
2023-09-23T06:42:47.163Z,62.43
2023-09-23T06:45:13.415Z,62.63
2023-09-23T06:47:39.785Z,62.24
2023-09-23T06:50:06.128Z,61.94
2023-09-23T06:52:32.310Z,61.71
2023-09-23T06:54:58.530Z,61.74
2023-09-23T06:57:24.734Z,62.38
2023-09-23T06:59:50.898Z,62.49
2023-09-23T07:02:17.141Z,62.30
2023-09-23T07:04:43.357Z,60.88
2023-09-23T07:07:09.517Z,59.50
2023-09-23T07:09:35.676Z,61.40
2023-09-23T07:12:01.875Z,60.70
2023-09-23T07:14:28.106Z,61.08
2023-09-23T07:16:54.456Z,61.83
2023-09-23T07:19:20.717Z,62.04
2023-09-23T07:21:46.922Z,62.03
2023-09-23T07:24:14.043Z,61.11
2023-09-23T07:26:40.276Z,62.36
2023-09-23T07:29:06.456Z,61.11
2023-09-23T07:31:32.635Z,61.62
2023-09-23T07:33:58.805Z,61.59
2023-09-23T07:36:25.029Z,58.98
2023-09-23T07:38:51.186Z,61.04
2023-09-23T07:41:17.365Z,59.31
2023-09-23T07:43:43.580Z,59.86
2023-09-23T07:46:09.872Z,59.73
2023-09-23T07:48:36.075Z,60.69
2023-09-23T07:51:02.220Z,60.42
2023-09-23T07:53:28.596Z,60.77
2023-09-23T07:55:54.884Z,60.21
2023-09-23T07:58:21.095Z,58.46
2023-09-23T08:00:47.242Z,57.60
2023-09-23T08:03:13.467Z,59.54
2023-09-23T08:05:39.763Z,58.91
2023-09-23T08:08:05.974Z,60.12
2023-09-23T08:10:32.218Z,59.31
2023-09-23T08:12:58.396Z,59.16
2023-09-23T08:15:24.570Z,58.80
2023-09-23T08:17:50.768Z,58.13
2023-09-23T08:20:16.974Z,59.63
2023-09-23T08:22:43.162Z,57.91
2023-09-23T08:25:09.313Z,62.29
2023-09-23T08:27:35.467Z,65.58
2023-09-23T08:30:01.644Z,62.59
2023-09-23T08:32:27.900Z,60.11
2023-09-23T08:34:54.202Z,61.37
2023-09-23T08:37:20.459Z,57.20
2023-09-23T08:39:46.638Z,57.70
2023-09-23T08:42:12.799Z,57.46
2023-09-23T08:44:38.965Z,61.81
2023-09-23T08:47:05.158Z,61.70
2023-09-23T08:49:31.343Z,60.19
2023-09-23T08:51:58.466Z,62.33
2023-09-23T08:54:25.029Z,61.89
2023-09-23T08:56:51.684Z,62.50
2023-09-23T08:59:17.889Z,61.64
2023-09-23T09:01:44.108Z,59.37
2023-09-23T09:04:10.256Z,62.47
2023-09-23T09:06:36.416Z,60.41
2023-09-23T09:09:02.590Z,58.27
2023-09-23T09:11:28.813Z,56.25
2023-09-23T09:13:55.031Z,56.84
2023-09-23T09:16:21.294Z,56.42
2023-09-23T09:18:47.558Z,56.20
2023-09-23T09:21:13.872Z,57.47
2023-09-23T09:23:40.079Z,55.79
2023-09-23T09:26:06.312Z,56.38
2023-09-23T09:28:32.489Z,61.86
2023-09-23T09:30:59.641Z,61.82
2023-09-23T09:33:26.804Z,62.88
2023-09-23T09:35:52.951Z,63.71
2023-09-23T09:38:19.234Z,63.97
2023-09-23T09:40:45.447Z,64.96
2023-09-23T09:43:11.633Z,64.65
2023-09-23T09:45:37.792Z,64.38
2023-09-23T09:48:03.975Z,60.52
2023-09-23T09:50:30.196Z,61.22
2023-09-23T09:52:56.420Z,59.46
2023-09-23T09:55:22.583Z,57.68
2023-09-23T09:57:48.748Z,56.54
2023-09-23T10:00:15.100Z,59.65
2023-09-23T10:02:41.362Z,54.75
2023-09-23T10:05:07.575Z,52.68
2023-09-23T10:07:33.810Z,55.16
2023-09-23T10:09:59.975Z,50.79
2023-09-23T10:12:26.143Z,51.00
2023-09-23T10:14:52.326Z,51.12
2023-09-23T10:17:18.556Z,49.61
2023-09-23T10:19:44.842Z,49.59
2023-09-23T10:22:11.016Z,47.01
2023-09-23T10:24:37.164Z,48.49
2023-09-23T10:27:03.321Z,48.94
2023-09-23T10:29:29.532Z,49.03
2023-09-23T10:31:55.734Z,49.48
2023-09-23T10:34:22.655Z,48.58
2023-09-23T10:36:49.730Z,47.57
2023-09-23T10:39:15.871Z,48.95
2023-09-23T10:41:42.053Z,48.26
2023-09-23T10:44:08.239Z,49.99
2023-09-23T10:46:34.451Z,49.33
2023-09-23T10:49:00.634Z,51.44
2023-09-23T10:51:26.791Z,50.71
2023-09-23T10:53:52.968Z,49.88
2023-09-23T10:56:19.152Z,49.31
2023-09-23T10:58:45.602Z,49.65
2023-09-23T11:01:11.912Z,49.01
2023-09-23T11:03:38.245Z,46.04
2023-09-23T11:06:04.591Z,45.73
2023-09-23T11:08:30.815Z,45.41
2023-09-23T11:10:57.124Z,45.09
2023-09-23T11:13:23.445Z,44.77
2023-09-23T11:15:49.630Z,42.43
2023-09-23T11:18:15.857Z,41.18
2023-09-23T11:20:42.175Z,42.32
2023-09-23T11:23:08.457Z,43.64
2023-09-23T11:25:34.644Z,42.07
2023-09-23T11:28:00.865Z,43.88
2023-09-23T11:30:27.079Z,45.05
2023-09-23T11:32:53.328Z,43.44
2023-09-23T11:35:19.594Z,45.25
2023-09-23T11:37:45.831Z,45.23
2023-09-23T11:40:12.004Z,43.58
2023-09-23T11:42:38.248Z,44.99
2023-09-23T11:45:04.422Z,44.45
2023-09-23T11:47:30.633Z,45.49
2023-09-23T11:49:56.825Z,43.75
2023-09-23T11:52:23.026Z,43.58
2023-09-23T11:54:49.261Z,43.50
2023-09-23T11:57:15.451Z,45.48
2023-09-23T11:59:41.697Z,44.78
2023-09-23T12:02:07.943Z,43.91
2023-09-23T12:04:34.259Z,43.91
2023-09-23T12:07:00.468Z,42.32
2023-09-23T12:09:26.662Z,43.69
2023-09-23T12:11:52.830Z,44.19
2023-09-23T12:14:19.026Z,42.34
2023-09-23T12:16:45.500Z,41.79
2023-09-23T12:19:11.716Z,42.40
2023-09-23T12:21:37.881Z,42.97
2023-09-23T12:24:04.128Z,42.60
2023-09-23T12:26:30.362Z,42.78
2023-09-23T12:28:56.573Z,43.22
2023-09-23T12:31:22.754Z,42.47
2023-09-23T12:33:48.915Z,43.07
2023-09-23T12:36:15.080Z,40.10
2023-09-23T12:38:41.348Z,39.23
2023-09-23T12:41:07.574Z,38.73
2023-09-23T12:43:33.768Z,37.79
2023-09-23T12:45:59.943Z,36.26
2023-09-23T12:48:26.253Z,35.61
2023-09-23T12:50:52.498Z,35.91
2023-09-23T12:53:18.689Z,34.93
2023-09-23T12:55:44.925Z,37.04
2023-09-23T12:58:11.092Z,37.44
2023-09-23T13:00:37.278Z,38.02
2023-09-23T13:03:03.563Z,36.90
2023-09-23T13:05:29.835Z,36.75
2023-09-23T13:07:56.086Z,36.41
2023-09-23T13:10:22.255Z,38.32
2023-09-23T13:12:48.421Z,38.14
2023-09-23T13:15:14.615Z,37.82
2023-09-23T13:17:40.776Z,37.50
2023-09-23T13:20:07.040Z,36.05
2023-09-23T13:22:33.392Z,34.77
2023-09-23T13:24:59.533Z,35.84
2023-09-23T13:27:25.706Z,36.40
2023-09-23T13:29:51.864Z,38.05
2023-09-23T13:32:18.038Z,39.75
2023-09-23T13:34:44.256Z,41.55
2023-09-23T13:37:10.427Z,43.78
2023-09-23T13:39:36.591Z,43.17
2023-09-23T13:42:02.759Z,43.38
2023-09-23T13:44:28.982Z,45.54
2023-09-23T13:46:55.311Z,44.38
2023-09-23T13:49:21.525Z,44.26
2023-09-23T13:51:47.683Z,44.49
2023-09-23T13:54:13.856Z,42.93
2023-09-23T13:56:40.071Z,42.55
2023-09-23T13:59:06.339Z,42.49
2023-09-23T14:01:32.554Z,41.08
2023-09-23T14:03:58.763Z,38.77
2023-09-23T14:06:24.937Z,38.96
2023-09-23T14:08:51.281Z,37.71
2023-09-23T14:11:17.439Z,38.18
2023-09-23T14:13:43.633Z,39.17
2023-09-23T14:16:09.824Z,41.83
2023-09-23T14:18:36.083Z,42.20
2023-09-23T14:21:02.387Z,41.43
2023-09-23T14:23:28.614Z,41.54
2023-09-23T14:25:54.809Z,41.63
2023-09-23T14:28:20.986Z,41.54
2023-09-23T14:30:47.201Z,42.09
2023-09-23T14:33:13.423Z,42.84
2023-09-23T14:35:39.658Z,42.21
2023-09-23T14:38:05.882Z,41.77
2023-09-23T14:40:32.073Z,41.47
2023-09-23T14:42:58.256Z,41.37
2023-09-23T14:45:24.420Z,42.87
2023-09-23T14:47:50.746Z,40.99
2023-09-23T14:50:17.091Z,43.29
2023-09-23T14:52:43.269Z,43.84
2023-09-23T14:55:09.424Z,43.73
2023-09-23T14:57:35.617Z,43.41
2023-09-23T15:00:01.911Z,42.87
2023-09-23T15:02:29.382Z,45.53
2023-09-23T15:04:55.648Z,45.03
2023-09-23T15:07:21.915Z,43.48
2023-09-23T15:09:48.124Z,44.88
2023-09-23T15:12:14.292Z,43.84
2023-09-23T15:14:40.616Z,41.58
2023-09-23T15:17:06.961Z,41.82
2023-09-23T15:19:33.152Z,41.82
2023-09-23T15:21:59.333Z,43.29
2023-09-23T15:24:25.497Z,44.15
2023-09-23T15:26:51.666Z,43.65
2023-09-23T15:29:17.853Z,43.11
2023-09-23T15:31:44.121Z,44.07
2023-09-23T15:34:10.392Z,45.41
2023-09-23T15:36:36.609Z,45.59
2023-09-23T15:39:02.799Z,44.22
2023-09-23T15:41:28.987Z,45.74
2023-09-23T15:43:55.233Z,46.03
2023-09-23T15:46:21.399Z,46.04
2023-09-23T15:48:47.762Z,45.13
2023-09-23T15:51:14.022Z,48.73
2023-09-23T15:53:40.229Z,48.24
2023-09-23T15:56:06.470Z,44.24
2023-09-23T15:58:32.639Z,49.28
2023-09-23T16:00:58.838Z,44.40
2023-09-23T16:03:25.127Z,46.00
2023-09-23T16:05:51.387Z,47.14
2023-09-23T16:08:17.615Z,44.72
2023-09-23T16:10:43.854Z,46.16
2023-09-23T16:13:10.036Z,43.92
2023-09-23T16:15:36.215Z,47.79
2023-09-23T16:18:02.504Z,49.69
2023-09-23T16:20:28.830Z,50.22
2023-09-23T16:22:55.021Z,48.71
2023-09-23T16:25:21.176Z,49.19
2023-09-23T16:27:47.331Z,48.23
2023-09-23T16:30:13.492Z,47.29
2023-09-23T16:32:39.818Z,44.97
2023-09-23T16:35:06.189Z,45.00
2023-09-23T16:37:32.438Z,48.68
2023-09-23T16:39:58.709Z,51.12
2023-09-23T16:42:24.873Z,51.15
2023-09-23T16:44:51.076Z,50.37
2023-09-23T16:47:17.316Z,51.60
2023-09-23T16:49:43.523Z,50.75
2023-09-23T16:52:09.675Z,51.41
2023-09-23T16:54:35.830Z,51.69
2023-09-23T16:57:01.986Z,52.35
2023-09-23T16:59:28.212Z,53.55
2023-09-23T17:01:54.441Z,53.38
2023-09-23T17:04:20.632Z,52.59
2023-09-23T17:06:46.804Z,53.40
2023-09-23T17:09:12.977Z,54.21
2023-09-23T17:11:39.222Z,55.01
2023-09-23T17:14:05.470Z,54.76
2023-09-23T17:16:31.718Z,54.72
2023-09-23T17:18:57.963Z,55.80
2023-09-23T17:21:24.138Z,55.32
2023-09-23T17:23:50.474Z,56.79
2023-09-23T17:26:16.745Z,56.94
2023-09-23T17:28:42.977Z,56.80
2023-09-23T17:31:09.150Z,56.32
2023-09-23T17:33:35.432Z,57.45
2023-09-23T17:36:01.660Z,57.61
2023-09-23T17:38:27.883Z,56.61
2023-09-23T17:40:54.073Z,56.72
2023-09-23T17:43:20.249Z,57.39
2023-09-23T17:45:46.420Z,57.58
2023-09-23T17:48:12.665Z,58.36
2023-09-23T17:50:38.942Z,58.84
2023-09-23T17:53:05.140Z,59.71
2023-09-23T17:55:31.293Z,58.90
2023-09-23T17:57:57.550Z,58.86
2023-09-23T18:00:23.745Z,58.46
2023-09-23T18:02:50.015Z,59.43
2023-09-23T18:05:16.343Z,61.22
2023-09-23T18:07:42.648Z,60.55
2023-09-23T18:10:08.832Z,60.50
2023-09-23T18:12:35.048Z,61.08
2023-09-23T18:15:01.305Z,61.11
2023-09-23T18:17:27.600Z,61.41
2023-09-23T18:19:53.811Z,61.00
2023-09-23T18:22:19.986Z,61.15
2023-09-23T18:24:46.179Z,60.27
2023-09-23T18:27:12.378Z,61.04
2023-09-23T18:29:38.580Z,60.87
2023-09-23T18:32:04.841Z,60.86
2023-09-23T18:34:31.093Z,60.93
2023-09-23T18:36:57.314Z,61.63
2023-09-23T18:39:23.473Z,61.02
2023-09-23T18:41:49.733Z,61.60
2023-09-23T18:44:16.000Z,61.05
2023-09-23T18:46:42.178Z,60.93
2023-09-23T18:49:08.716Z,61.45
2023-09-23T18:51:34.934Z,61.62
2023-09-23T18:54:01.151Z,62.03
2023-09-23T18:56:27.434Z,61.99
2023-09-23T18:58:53.672Z,61.88
2023-09-23T19:01:19.896Z,62.20
2023-09-23T19:03:46.528Z,61.67
2023-09-23T19:06:12.940Z,63.69
2023-09-23T19:08:39.151Z,63.29
2023-09-23T19:11:05.368Z,62.70
2023-09-23T19:13:31.549Z,62.18
2023-09-23T19:15:57.748Z,62.90
2023-09-23T19:18:23.946Z,63.38
2023-09-23T19:20:50.227Z,64.49
2023-09-23T19:23:16.538Z,63.58
2023-09-23T19:25:42.819Z,63.21
2023-09-23T19:28:08.990Z,62.98
2023-09-23T19:30:35.156Z,63.18
2023-09-23T19:33:01.418Z,64.27
2023-09-23T19:35:27.626Z,65.22
2023-09-23T19:37:53.856Z,64.89
2023-09-23T19:40:20.039Z,64.06
2023-09-23T19:42:46.180Z,65.17
2023-09-23T19:45:12.498Z,65.03
2023-09-23T19:47:38.771Z,64.45
2023-09-23T19:50:04.967Z,64.43
2023-09-23T19:52:31.142Z,64.70
2023-09-23T19:54:57.299Z,64.78
2023-09-23T19:57:23.465Z,64.95
2023-09-23T19:59:49.676Z,65.18
2023-09-23T20:02:15.915Z,63.99
2023-09-23T20:04:42.118Z,63.73
2023-09-23T20:07:08.343Z,64.24
2023-09-23T20:09:34.506Z,63.80
2023-09-23T20:12:00.742Z,64.24
2023-09-23T20:14:27.006Z,63.64
2023-09-23T20:16:53.219Z,64.38
2023-09-23T20:19:19.697Z,64.63
2023-09-23T20:21:45.889Z,64.82
2023-09-23T20:24:12.112Z,65.20
2023-09-23T20:26:38.336Z,64.05
2023-09-23T20:29:04.524Z,65.23
2023-09-23T20:31:30.679Z,65.59
2023-09-23T20:33:56.832Z,65.85
2023-09-23T20:36:23.015Z,66.31
2023-09-23T20:38:49.176Z,65.55
2023-09-23T20:41:15.438Z,66.14
2023-09-23T20:43:41.675Z,65.20
2023-09-23T20:46:07.938Z,64.79
2023-09-23T20:48:34.164Z,65.04
2023-09-23T20:51:00.330Z,64.85
2023-09-23T20:53:26.531Z,64.79
2023-09-23T20:55:52.765Z,64.91
2023-09-23T20:58:18.923Z,65.22
2023-09-23T21:00:45.098Z,65.24
2023-09-23T21:03:12.509Z,64.84
2023-09-23T21:05:39.731Z,65.15
2023-09-23T21:08:05.905Z,64.48
2023-09-23T21:10:32.075Z,64.96
2023-09-23T21:12:58.224Z,65.01
2023-09-23T21:15:24.382Z,66.26
2023-09-23T21:17:50.723Z,67.16
2023-09-23T21:20:17.073Z,66.77
2023-09-23T21:22:43.298Z,66.74
2023-09-23T21:25:09.454Z,68.00
2023-09-23T21:27:35.662Z,68.24
2023-09-23T21:30:01.860Z,68.75
2023-09-23T21:32:28.107Z,68.17
2023-09-23T21:34:54.376Z,67.59
2023-09-23T21:37:20.529Z,66.87
2023-09-23T21:39:46.687Z,66.56
2023-09-23T21:42:12.849Z,66.55
2023-09-23T21:44:39.067Z,67.68
2023-09-23T21:47:05.983Z,67.21
2023-09-23T21:49:32.620Z,67.52
2023-09-23T21:51:58.814Z,67.30
2023-09-23T21:54:25.005Z,66.97
2023-09-23T21:56:51.180Z,66.93
2023-09-23T21:59:17.803Z,67.01
2023-09-23T22:01:44.022Z,66.75
2023-09-23T22:04:10.386Z,67.31
2023-09-23T22:06:36.734Z,67.16
2023-09-23T22:09:02.900Z,67.51
2023-09-23T22:11:29.096Z,67.80
2023-09-23T22:13:55.315Z,67.46
2023-09-23T22:16:21.478Z,67.50
2023-09-23T22:18:47.674Z,67.40
2023-09-23T22:21:13.845Z,67.50
2023-09-23T22:23:40.051Z,68.56
2023-09-23T22:26:06.256Z,68.76
2023-09-23T22:28:32.415Z,67.67
2023-09-23T22:30:58.626Z,66.90
2023-09-23T22:33:24.906Z,67.17
2023-09-23T22:35:51.118Z,68.18
2023-09-23T22:38:17.323Z,69.28
2023-09-23T22:40:43.502Z,68.95
2023-09-23T22:43:09.746Z,69.25
2023-09-23T22:45:39.525Z,68.82
2023-09-23T22:48:06.537Z,68.50
2023-09-23T22:50:32.918Z,67.79
2023-09-23T22:52:59.089Z,67.85
2023-09-23T22:55:25.228Z,66.39
2023-09-23T22:57:51.501Z,67.11
2023-09-23T23:00:17.665Z,66.73
2023-09-23T23:02:43.955Z,67.54
2023-09-23T23:05:10.243Z,67.77
2023-09-23T23:07:36.509Z,67.44
2023-09-23T23:10:02.674Z,65.89
2023-09-23T23:12:28.824Z,65.17
2023-09-23T23:14:55.120Z,65.38
2023-09-23T23:17:21.377Z,65.36
2023-09-23T23:19:47.534Z,65.04
2023-09-23T23:22:13.710Z,65.15
2023-09-23T23:24:39.857Z,66.77
2023-09-23T23:27:06.014Z,67.51
2023-09-23T23:29:32.240Z,67.26
2023-09-23T23:31:58.510Z,67.44
2023-09-23T23:34:24.666Z,67.83
2023-09-23T23:36:50.820Z,68.00
2023-09-23T23:39:16.963Z,67.47
2023-09-23T23:41:43.184Z,66.87
2023-09-23T23:44:09.391Z,65.87
2023-09-23T23:46:35.594Z,65.57
2023-09-23T23:49:01.785Z,65.64
2023-09-23T23:51:27.962Z,65.26
2023-09-23T23:53:54.141Z,65.66
2023-09-23T23:56:20.361Z,65.09
2023-09-23T23:58:46.547Z,64.33
